Time;durP1;ratioP1;P1;durP2;ratioP2;P2;SDS_P1;SDS_P2;PMS_P1;PMS_P2;Temp;Humidity;BMP_temperature;BMP_pressure;BME280_temperature;BME280_humidity;BME280_pressure;Samples;Min_cycle;Max_cycle;Signal;HPM_P1;HPM_P2
2022/07/21 00:01:51;;;;;;;14.40;13.00;;;20.60;99.90;;;;;;5091817;28;20032;-31
2022/07/21 00:04:17;;;;;;;15.02;12.60;;;20.60;99.90;;;;;;5073000;28;20087;-30
2022/07/21 00:06:45;;;;;;;14.80;13.20;;;20.50;99.90;;;;;;5077906;28;20412;-30
2022/07/21 00:09:13;;;;;;;14.27;12.18;;;20.50;99.90;;;;;;5074342;28;20040;-30
2022/07/21 00:11:41;;;;;;;15.50;12.40;;;20.50;99.90;;;;;;5093514;28;20043;-31
2022/07/21 00:14:09;;;;;;;17.35;13.85;;;20.40;99.90;;;;;;5085206;28;20040;-30
2022/07/21 00:16:36;;;;;;;17.48;15.40;;;20.50;99.90;;;;;;5075565;28;20040;-30
2022/07/21 00:19:02;;;;;;;18.98;14.20;;;20.40;99.90;;;;;;5064396;28;20448;-30
2022/07/21 00:21:29;;;;;;;17.48;13.80;;;20.40;99.90;;;;;;5087880;28;20447;-32
2022/07/21 00:23:55;;;;;;;14.77;12.93;;;20.40;99.90;;;;;;5072521;28;20090;-30
2022/07/21 00:26:21;;;;;;;16.85;14.20;;;20.40;99.90;;;;;;5074724;28;20044;-31
2022/07/21 00:28:48;;;;;;;18.35;14.75;;;20.50;99.90;;;;;;5074066;28;20055;-31
2022/07/21 00:31:13;;;;;;;14.88;12.95;;;20.50;99.90;;;;;;5072483;28;20105;-30
2022/07/21 00:33:40;;;;;;;17.92;14.02;;;20.50;99.90;;;;;;5091034;28;20040;-30
2022/07/21 00:36:06;;;;;;;15.75;14.15;;;20.40;99.90;;;;;;5073425;28;20044;-30
2022/07/21 00:38:32;;;;;;;18.15;14.55;;;20.40;99.90;;;;;;5074184;28;20043;-30
2022/07/21 00:40:58;;;;;;;17.25;13.55;;;20.40;99.90;;;;;;5070014;28;20109;-30
2022/07/21 00:43:26;;;;;;;15.57;13.55;;;20.40;99.90;;;;;;5091014;28;20119;-30
2022/07/21 00:45:55;;;;;;;17.13;14.60;;;20.40;99.90;;;;;;5091982;28;20035;-30
2022/07/21 00:48:22;;;;;;;18.25;14.93;;;20.40;99.90;;;;;;5073141;28;20033;-32
2022/07/21 00:50:51;;;;;;;16.30;14.55;;;20.40;99.90;;;;;;5086827;28;20110;-30
2022/07/21 00:53:18;;;;;;;17.17;14.98;;;20.40;99.90;;;;;;5078850;28;20166;-31
2022/07/21 00:55:46;;;;;;;18.15;13.80;;;20.40;99.90;;;;;;5078963;28;20028;-33
2022/07/21 00:58:12;;;;;;;17.67;15.77;;;20.30;99.90;;;;;;5079088;28;20040;-31
2022/07/21 01:00:40;;;;;;;16.98;15.18;;;20.30;99.90;;;;;;5062918;28;20043;-30
2022/07/21 01:03:06;;;;;;;16.55;14.18;;;20.30;99.90;;;;;;5076248;28;20319;-32
2022/07/21 01:05:32;;;;;;;17.73;15.48;;;20.20;99.90;;;;;;5073776;28;20040;-31
2022/07/21 01:08:02;;;;;;;18.63;15.10;;;20.20;99.90;;;;;;5071963;28;20074;-31
2022/07/21 01:10:32;;;;;;;18.42;15.55;;;20.20;99.90;;;;;;5096923;28;20160;-30
2022/07/21 01:13:00;;;;;;;16.77;15.18;;;20.20;99.90;;;;;;5071774;28;20536;-31
2022/07/21 01:15:26;;;;;;;18.92;15.57;;;20.20;99.90;;;;;;5073265;28;20036;-31
2022/07/21 01:17:53;;;;;;;18.55;15.77;;;20.20;99.90;;;;;;5060448;28;20477;-30
2022/07/21 01:20:20;;;;;;;17.15;15.35;;;20.10;99.90;;;;;;5071103;28;20066;-30
2022/07/21 01:22:52;;;;;;;18.25;15.50;;;20.20;99.90;;;;;;5046081;28;20033;-30
2022/07/21 01:25:19;;;;;;;17.70;15.85;;;20.20;99.90;;;;;;5052080;28;20032;-30
2022/07/21 01:27:45;;;;;;;19.48;17.50;;;20.10;99.90;;;;;;5053102;28;20039;-30
2022/07/21 01:30:13;;;;;;;20.00;17.40;;;20.10;99.90;;;;;;5048844;28;20044;-30
2022/07/21 01:32:40;;;;;;;17.15;15.38;;;20.10;99.90;;;;;;5053161;28;20040;-30
2022/07/21 01:35:08;;;;;;;18.92;15.85;;;20.10;99.90;;;;;;5058491;28;20037;-31
2022/07/21 01:37:40;;;;;;;17.90;16.13;;;20.10;99.90;;;;;;5053295;28;20125;-30
2022/07/21 01:42:52;;;;;;;21.08;17.40;;;20.00;99.90;;;;;;5070798;28;20493;-30
2022/07/21 01:45:19;;;;;;;21.67;16.48;;;20.00;99.90;;;;;;5049484;28;20421;-30
2022/07/21 01:47:44;;;;;;;19.25;16.40;;;20.00;99.90;;;;;;5053179;28;20119;-31
2022/07/21 01:50:10;;;;;;;20.60;17.58;;;20.00;99.90;;;;;;5052374;28;20119;-30
2022/07/21 01:52:36;;;;;;;20.63;17.52;;;19.90;99.90;;;;;;5047207;28;20592;-30
2022/07/21 01:55:03;;;;;;;24.65;18.13;;;19.90;99.90;;;;;;5052312;28;20044;-32
2022/07/21 01:57:29;;;;;;;20.75;15.50;;;19.80;99.90;;;;;;5049061;28;20113;-31
2022/07/21 01:59:55;;;;;;;15.52;13.93;;;19.80;99.90;;;;;;5048135;28;20568;-31
2022/07/21 02:02:21;;;;;;;19.88;15.10;;;19.80;99.90;;;;;;5050074;28;20029;-31
2022/07/21 02:04:49;;;;;;;18.10;14.85;;;19.80;99.90;;;;;;5063716;28;20040;-30
2022/07/21 02:07:15;;;;;;;16.95;14.25;;;19.80;99.90;;;;;;5041217;28;20492;-31
2022/07/21 02:09:41;;;;;;;14.32;12.85;;;19.80;99.90;;;;;;5064004;28;20033;-33
2022/07/21 02:12:07;;;;;;;15.15;13.45;;;19.80;99.90;;;;;;5051800;28;20040;-31
2022/07/21 02:14:34;;;;;;;13.50;12.18;;;19.70;99.90;;;;;;5046679;28;20029;-30
2022/07/21 02:17:00;;;;;;;15.02;13.30;;;19.80;99.90;;;;;;5070107;28;20040;-29
2022/07/21 02:19:26;;;;;;;14.93;12.68;;;19.70;99.90;;;;;;5072028;28;20085;-31
2022/07/21 02:21:52;;;;;;;14.88;13.38;;;19.70;99.90;;;;;;5072213;28;20447;-31
2022/07/21 02:24:19;;;;;;;13.75;12.18;;;19.70;99.90;;;;;;5062549;28;20450;-31
2022/07/21 02:26:46;;;;;;;13.90;11.68;;;19.70;99.90;;;;;;5083674;28;20039;-32
2022/07/21 02:29:12;;;;;;;13.98;12.52;;;19.60;99.90;;;;;;5084299;28;20036;-30
2022/07/21 02:31:38;;;;;;;12.40;11.20;;;19.60;99.90;;;;;;5072225;28;20511;-31
2022/07/21 02:34:06;;;;;;;12.95;11.77;;;19.50;99.90;;;;;;5067268;28;20044;-32
2022/07/21 02:36:32;;;;;;;13.23;10.60;;;19.50;99.90;;;;;;5049479;28;20032;-30
2022/07/21 02:38:58;;;;;;;14.45;11.38;;;19.50;99.90;;;;;;5067642;28;20045;-30
2022/07/21 02:41:24;;;;;;;15.30;12.90;;;19.50;99.90;;;;;;5068316;28;20059;-30
2022/07/21 02:43:49;;;;;;;14.30;12.55;;;19.50;99.90;;;;;;5072087;28;20158;-32
2022/07/21 02:46:15;;;;;;;12.93;11.55;;;19.50;99.90;;;;;;5066304;28;20044;-29
2022/07/21 02:48:41;;;;;;;15.43;12.55;;;19.50;99.90;;;;;;5068914;28;20043;-31
2022/07/21 02:51:07;;;;;;;12.80;11.50;;;19.50;99.90;;;;;;5072326;28;20048;-31
2022/07/21 02:53:32;;;;;;;13.70;12.30;;;19.50;99.90;;;;;;5053838;28;20178;-32
2022/07/21 02:55:58;;;;;;;13.73;12.43;;;19.50;99.90;;;;;;5093043;28;20064;-30
2022/07/21 02:58:26;;;;;;;13.95;12.25;;;19.40;99.90;;;;;;5089192;28;20036;-30
2022/07/21 03:01:02;;;;;;;15.30;13.63;;;19.40;99.90;;;;;;5073623;28;20050;-31
2022/07/21 03:03:30;;;;;;;14.93;13.40;;;19.50;99.90;;;;;;5092189;28;20119;-31
2022/07/21 03:05:58;;;;;;;14.13;12.73;;;19.50;99.90;;;;;;5073803;28;20039;-29
2022/07/21 03:08:24;;;;;;;15.60;13.77;;;19.50;99.90;;;;;;5071937;28;20044;-30
2022/07/21 03:10:51;;;;;;;14.88;13.38;;;19.50;99.90;;;;;;5066144;28;20043;-30
2022/07/21 03:13:17;;;;;;;16.17;14.60;;;19.50;99.90;;;;;;5074272;28;20068;-30
2022/07/21 03:15:43;;;;;;;16.63;14.93;;;19.50;99.90;;;;;;5065029;28;20059;-31
2022/07/21 03:18:09;;;;;;;18.05;16.15;;;19.50;99.90;;;;;;5091683;28;20038;-30
2022/07/21 03:20:37;;;;;;;19.08;16.65;;;19.50;99.90;;;;;;5075515;28;20075;-30
2022/07/21 03:23:03;;;;;;;19.20;17.27;;;19.50;99.90;;;;;;5075047;28;20036;-30
2022/07/21 03:25:30;;;;;;;21.60;17.90;;;19.50;99.90;;;;;;5067332;28;20067;-30
2022/07/21 03:27:56;;;;;;;22.95;20.65;;;19.40;99.90;;;;;;5074593;28;20078;-31
2022/07/21 03:30:22;;;;;;;22.83;20.48;;;19.40;99.90;;;;;;5075816;28;20040;-30
2022/07/21 03:32:49;;;;;;;22.77;20.40;;;19.40;99.90;;;;;;5074499;28;20480;-31
2022/07/21 03:35:15;;;;;;;21.60;19.45;;;19.40;99.90;;;;;;5057914;28;20054;-30
2022/07/21 03:37:48;;;;;;;22.95;20.55;;;19.40;99.90;;;;;;5075759;28;20110;-30
2022/07/21 03:40:16;;;;;;;22.48;20.20;;;19.40;99.90;;;;;;5074091;28;20124;-30
2022/07/21 03:42:45;;;;;;;23.08;20.75;;;19.40;99.90;;;;;;5086964;28;20035;-30
2022/07/21 03:45:12;;;;;;;24.05;21.45;;;19.40;99.90;;;;;;5090860;28;20039;-30
2022/07/21 03:47:40;;;;;;;25.48;22.85;;;19.40;99.90;;;;;;5075373;28;20040;-30
2022/07/21 03:50:07;;;;;;;26.20;23.40;;;19.50;99.90;;;;;;5074619;28;20119;-30
2022/07/21 03:52:33;;;;;;;23.92;21.50;;;19.50;99.90;;;;;;5055137;28;20044;-31
2022/07/21 03:55:08;;;;;;;26.33;23.65;;;19.40;99.90;;;;;;5067744;28;20123;-31
2022/07/21 03:57:38;;;;;;;26.58;23.77;;;19.50;99.90;;;;;;5089539;28;20040;-31
2022/07/21 04:00:08;;;;;;;30.45;27.42;;;19.50;99.90;;;;;;5073997;28;20047;-32
2022/07/21 04:02:37;;;;;;;26.77;24.20;;;19.50;99.90;;;;;;5088110;28;20039;-30
2022/07/21 04:05:05;;;;;;;26.42;23.80;;;19.40;99.90;;;;;;5089409;28;20032;-30
2022/07/21 04:07:32;;;;;;;26.70;23.98;;;19.40;99.90;;;;;;5070345;28;20509;-32
2022/07/21 04:09:59;;;;;;;24.40;21.92;;;19.40;99.90;;;;;;5071073;28;20493;-31
2022/07/21 04:12:28;;;;;;;25.90;23.33;;;19.50;99.90;;;;;;5058052;28;20067;-31
2022/07/21 04:14:55;;;;;;;25.08;22.67;;;19.40;99.90;;;;;;5069646;28;20076;-30
2022/07/21 04:17:21;;;;;;;29.02;26.27;;;19.50;99.90;;;;;;5074022;28;20115;-32
2022/07/21 04:19:47;;;;;;;27.40;24.73;;;19.40;99.90;;;;;;5070779;28;20098;-31
2022/07/21 04:22:13;;;;;;;26.90;24.20;;;19.40;99.90;;;;;;5072032;28;20079;-30
2022/07/21 04:24:39;;;;;;;27.63;24.95;;;19.40;99.90;;;;;;5074092;28;20117;-31
2022/07/21 04:27:05;;;;;;;26.25;23.65;;;19.50;99.90;;;;;;5073926;28;20044;-32
2022/07/21 04:29:31;;;;;;;24.73;22.33;;;19.50;99.90;;;;;;5070617;28;20057;-31
2022/07/21 04:31:56;;;;;;;26.58;24.17;;;19.50;99.90;;;;;;5074723;28;20032;-32
2022/07/21 04:34:22;;;;;;;25.38;22.88;;;19.50;99.90;;;;;;5070956;28;20040;-32
2022/07/21 04:36:48;;;;;;;25.27;22.75;;;19.50;99.90;;;;;;5055864;28;20062;-30
2022/07/21 04:39:14;;;;;;;24.77;22.45;;;19.50;99.90;;;;;;5092316;28;20044;-31
2022/07/21 04:41:40;;;;;;;26.38;23.75;;;19.60;99.90;;;;;;5073184;28;20043;-31
2022/07/21 04:44:06;;;;;;;29.77;26.83;;;19.60;99.90;;;;;;5057599;28;20092;-31
2022/07/21 04:46:32;;;;;;;26.52;24.02;;;19.60;99.90;;;;;;5071770;28;20436;-30
2022/07/21 04:48:58;;;;;;;27.70;24.90;;;19.60;99.90;;;;;;5087658;28;20135;-29
2022/07/21 04:51:24;;;;;;;28.30;25.40;;;19.60;99.90;;;;;;5057263;28;20047;-30
2022/07/21 04:53:50;;;;;;;27.20;24.60;;;19.60;99.90;;;;;;5073237;28;20031;-32
2022/07/21 04:56:16;;;;;;;29.92;27.02;;;19.60;99.90;;;;;;5057253;28;20455;-29
2022/07/21 04:58:42;;;;;;;26.85;24.25;;;19.60;99.90;;;;;;5073150;28;20032;-29
2022/07/21 05:01:09;;;;;;;28.27;25.45;;;19.60;99.90;;;;;;5091651;28;20032;-32
2022/07/21 05:03:35;;;;;;;27.75;24.98;;;19.60;99.90;;;;;;5069660;28;20055;-30
2022/07/21 05:06:01;;;;;;;28.15;25.52;;;19.60;99.90;;;;;;5073510;28;20397;-33
2022/07/21 05:08:27;;;;;;;32.58;29.38;;;19.60;99.90;;;;;;5073049;28;20035;-30
2022/07/21 05:10:53;;;;;;;27.92;25.35;;;19.60;99.90;;;;;;5055220;28;20506;-31
2022/07/21 05:13:19;;;;;;;31.80;28.73;;;19.60;99.90;;;;;;5059557;28;20032;-32
2022/07/21 05:15:45;;;;;;;30.58;27.52;;;19.60;99.90;;;;;;5069723;28;20062;-30
2022/07/21 05:18:11;;;;;;;34.00;30.50;;;19.70;99.90;;;;;;5076447;28;20154;-31
2022/07/21 05:20:37;;;;;;;32.28;28.90;;;19.70;99.90;;;;;;5062436;28;20072;-32
2022/07/21 05:23:03;;;;;;;33.47;30.20;;;19.70;99.90;;;;;;5085219;28;20044;-33
2022/07/21 05:25:31;;;;;;;33.63;30.17;;;19.70;99.90;;;;;;5069335;28;20066;-31
2022/07/21 05:27:58;;;;;;;32.90;29.58;;;19.70;99.90;;;;;;5057015;28;20524;-30
2022/07/21 05:30:23;;;;;;;29.50;26.63;;;19.70;99.90;;;;;;5056563;28;20048;-30
2022/07/21 05:32:49;;;;;;;28.60;25.70;;;19.80;99.90;;;;;;5072953;28;20036;-31
2022/07/21 05:35:18;;;;;;;30.08;27.08;;;19.80;99.90;;;;;;5072569;28;20396;-31
2022/07/21 05:37:45;;;;;;;28.38;25.63;;;19.90;99.90;;;;;;5056728;28;20036;-30
2022/07/21 05:40:12;;;;;;;30.50;27.33;;;20.00;99.90;;;;;;5071782;28;20040;-30
2022/07/21 05:42:39;;;;;;;28.50;25.73;;;20.00;99.90;;;;;;5091296;28;20036;-30
2022/07/21 05:45:06;;;;;;;27.63;25.02;;;20.20;99.90;;;;;;5072622;28;20385;-30
2022/07/21 05:47:34;;;;;;;27.65;24.85;;;20.20;99.90;;;;;;5067575;28;20493;-30
2022/07/21 05:50:04;;;;;;;26.67;23.92;;;20.30;99.90;;;;;;5082619;28;20040;-30
2022/07/21 05:52:30;;;;;;;27.02;24.38;;;20.40;99.90;;;;;;5085658;28;20412;-31
2022/07/21 05:54:56;;;;;;;26.95;24.35;;;20.50;99.90;;;;;;5065867;28;20038;-32
2022/07/21 05:57:21;;;;;;;24.40;22.10;;;20.60;99.90;;;;;;5071668;28;20028;-30
2022/07/21 05:59:47;;;;;;;27.00;24.55;;;20.70;99.90;;;;;;5068350;28;20119;-30
2022/07/21 06:02:13;;;;;;;26.77;24.02;;;20.60;99.90;;;;;;5067035;28;20504;-30
2022/07/21 06:04:40;;;;;;;26.38;23.98;;;20.60;99.90;;;;;;5073261;28;20118;-30
2022/07/21 06:07:05;;;;;;;25.33;22.83;;;20.40;99.90;;;;;;5071274;28;20036;-31
2022/07/21 06:09:31;;;;;;;26.05;23.38;;;20.40;99.90;;;;;;5072886;28;20366;-31
2022/07/21 06:11:57;;;;;;;27.55;24.83;;;20.30;99.90;;;;;;5070954;28;20496;-31
2022/07/21 06:14:23;;;;;;;27.20;24.55;;;20.20;99.90;;;;;;5083430;28;20035;-32
2022/07/21 06:16:49;;;;;;;27.20;24.40;;;20.10;99.90;;;;;;5066377;28;20039;-29
2022/07/21 06:19:14;;;;;;;28.00;25.15;;;20.10;99.90;;;;;;5059007;28;20036;-30
2022/07/21 06:21:40;;;;;;;27.60;24.90;;;20.00;99.90;;;;;;5058688;28;20047;-31
2022/07/21 06:24:07;;;;;;;28.20;25.40;;;19.90;99.90;;;;;;5054213;28;20035;-30
2022/07/21 06:26:33;;;;;;;28.75;25.77;;;19.90;99.90;;;;;;5066013;28;20098;-30
2022/07/21 06:28:59;;;;;;;27.27;24.58;;;19.80;99.90;;;;;;5059474;28;20127;-31
2022/07/21 06:31:25;;;;;;;27.63;24.70;;;19.80;99.90;;;;;;5076422;28;20123;-30
2022/07/21 06:33:51;;;;;;;28.27;25.38;;;19.90;99.90;;;;;;5091160;28;20040;-31
2022/07/21 06:36:17;;;;;;;28.50;25.70;;;19.90;99.90;;;;;;5073482;28;20115;-30
2022/07/21 06:38:44;;;;;;;28.60;25.77;;;19.90;99.90;;;;;;5085047;28;20054;-31
2022/07/21 06:41:11;;;;;;;27.20;24.73;;;19.90;99.90;;;;;;5064688;28;20597;-30
2022/07/21 06:43:36;;;;;;;29.17;26.20;;;19.90;99.90;;;;;;5060992;28;20075;-30
2022/07/21 06:46:03;;;;;;;32.08;28.85;;;20.00;99.90;;;;;;5069266;28;20497;-32
2022/07/21 06:48:29;;;;;;;29.63;26.73;;;20.00;99.90;;;;;;5074407;28;20044;-31
2022/07/21 06:50:55;;;;;;;30.83;27.73;;;20.10;99.90;;;;;;5082663;28;20563;-31
2022/07/21 06:53:22;;;;;;;28.90;26.10;;;20.20;99.90;;;;;;5062950;28;20037;-32
2022/07/21 06:55:52;;;;;;;32.30;29.10;;;20.30;99.90;;;;;;5061220;28;20044;-30
2022/07/21 06:58:21;;;;;;;32.78;29.48;;;20.30;99.90;;;;;;5059846;28;20734;-31
2022/07/21 07:00:48;;;;;;;30.88;27.77;;;20.50;99.90;;;;;;5072979;28;20120;-31
2022/07/21 07:03:15;;;;;;;32.33;29.13;;;20.50;99.90;;;;;;5064260;28;20028;-29
2022/07/21 07:05:42;;;;;;;32.65;29.23;;;20.60;99.90;;;;;;5057543;28;20127;-29
2022/07/21 07:08:09;;;;;;;30.92;27.67;;;20.60;99.90;;;;;;5060928;28;20413;-31
2022/07/21 07:10:34;;;;;;;31.90;28.60;;;20.70;99.90;;;;;;5055606;28;20047;-30
2022/07/21 07:13:01;;;;;;;32.65;29.35;;;20.80;99.90;;;;;;5060690;28;20036;-32
2022/07/21 07:15:28;;;;;;;33.33;29.92;;;20.90;99.90;;;;;;5045552;28;20075;-30
2022/07/21 07:17:55;;;;;;;32.50;29.23;;;21.10;99.90;;;;;;5072828;28;20035;-30
2022/07/21 07:20:22;;;;;;;30.88;27.75;;;21.30;99.90;;;;;;5060419;28;20413;-30
2022/07/21 07:22:48;;;;;;;30.77;27.67;;;21.40;99.90;;;;;;5064281;28;20032;-30
2022/07/21 07:25:17;;;;;;;31.40;28.15;;;21.50;99.90;;;;;;5062914;28;20421;-31
2022/07/21 07:27:48;;;;;;;31.92;28.60;;;21.50;99.90;;;;;;5073592;28;20043;-31
2022/07/21 07:30:16;;;;;;;32.92;29.63;;;21.60;99.90;;;;;;5067933;28;20047;-33
2022/07/21 07:32:42;;;;;;;31.20;28.17;;;21.70;99.90;;;;;;5075307;28;20075;-31
2022/07/21 07:35:09;;;;;;;34.58;31.17;;;21.70;99.90;;;;;;5085614;28;20090;-30
2022/07/21 07:37:37;;;;;;;33.78;30.38;;;21.80;99.90;;;;;;5075236;28;20486;-30
2022/07/21 07:40:05;;;;;;;32.28;29.08;;;22.00;99.90;;;;;;5073777;28;20047;-31
2022/07/21 07:42:31;;;;;;;32.10;28.85;;;22.10;99.90;;;;;;5079795;28;20029;-30
2022/07/21 07:44:57;;;;;;;33.33;29.88;;;22.30;99.90;;;;;;5066895;28;20103;-31
2022/07/21 07:47:23;;;;;;;32.60;29.40;;;22.60;99.90;;;;;;5073026;28;20048;-31
2022/07/21 07:49:52;;;;;;;32.17;28.92;;;22.70;99.90;;;;;;5075200;28;20028;-31
2022/07/21 07:52:19;;;;;;;31.35;28.20;;;22.70;99.90;;;;;;5073984;28;20035;-30
2022/07/21 07:54:45;;;;;;;30.33;27.33;;;23.00;99.90;;;;;;5092763;28;20168;-30
2022/07/21 07:57:11;;;;;;;29.15;26.42;;;23.10;99.90;;;;;;5055801;28;20036;-30
2022/07/21 07:59:37;;;;;;;29.67;26.58;;;23.30;99.90;;;;;;5049630;28;20127;-31
2022/07/21 08:02:03;;;;;;;28.45;25.75;;;23.50;99.90;;;;;;5074712;28;20036;-30
2022/07/21 08:04:29;;;;;;;29.48;26.63;;;23.70;99.90;;;;;;5073692;28;20024;-30
2022/07/21 08:06:55;;;;;;;30.88;27.88;;;24.00;99.90;;;;;;5075248;28;20035;-31
2022/07/21 08:09:20;;;;;;;26.73;24.30;;;24.00;99.90;;;;;;5085602;22;20048;-29
2022/07/21 08:11:47;;;;;;;25.77;23.38;;;24.10;99.90;;;;;;5074449;28;20047;-30
2022/07/21 08:14:14;;;;;;;27.33;23.70;;;24.10;99.90;;;;;;5068251;28;20036;-30
2022/07/21 08:16:40;;;;;;;27.35;24.58;;;24.00;99.90;;;;;;5075014;28;20074;-30
2022/07/21 08:19:05;;;;;;;27.98;25.38;;;24.00;99.90;;;;;;5065082;28;20480;-30
2022/07/21 08:21:33;;;;;;;27.50;24.73;;;23.80;99.90;;;;;;5069204;28;20069;-30
2022/07/21 08:24:00;;;;;;;29.70;26.23;;;23.60;99.90;;;;;;5076130;28;20047;-30
2022/07/21 08:26:26;;;;;;;27.27;24.58;;;23.50;99.90;;;;;;5059435;28;20043;-30
2022/07/21 08:28:56;;;;;;;25.63;23.05;;;23.70;99.90;;;;;;5074921;28;20093;-30
2022/07/21 08:31:23;;;;;;;26.23;23.58;;;23.90;99.90;;;;;;5094714;28;20043;-30
2022/07/21 08:33:52;;;;;;;25.77;23.35;;;24.10;99.90;;;;;;5088597;28;20055;-30
2022/07/21 08:36:19;;;;;;;24.88;22.45;;;24.60;99.90;;;;;;5075307;28;20169;-30
2022/07/21 08:38:44;;;;;;;24.98;22.70;;;24.80;99.90;;;;;;5069140;28;20109;-30
2022/07/21 08:41:11;;;;;;;26.05;23.45;;;25.00;99.90;;;;;;5089428;28;20520;-30
2022/07/21 08:43:37;;;;;;;27.92;25.23;;;25.30;99.90;;;;;;5073079;28;20055;-30
2022/07/21 08:46:04;;;;;;;27.48;24.77;;;25.20;99.90;;;;;;5080435;28;20404;-30
2022/07/21 08:48:30;;;;;;;26.13;23.67;;;25.10;99.90;;;;;;5066758;28;20047;-27
2022/07/21 08:50:57;;;;;;;26.15;23.55;;;25.10;99.90;;;;;;5073416;28;20484;-30
2022/07/21 08:53:24;;;;;;;26.50;24.05;;;25.30;99.90;;;;;;5076999;28;20550;-30
2022/07/21 08:55:50;;;;;;;27.10;24.33;;;25.50;99.90;;;;;;5098092;28;20032;-30
2022/07/21 08:58:16;;;;;;;26.52;24.02;;;25.80;99.90;;;;;;5079212;28;20040;-30
2022/07/21 09:00:46;;;;;;;27.55;24.80;;;25.60;99.90;;;;;;5077697;28;20028;-30
2022/07/21 09:03:27;;;;;;;26.45;23.85;;;25.20;99.90;;;;;;5051956;28;20040;-30
2022/07/21 09:06:12;;;;;;;25.95;23.38;;;24.80;99.90;;;;;;5056529;28;20502;-30
2022/07/21 09:08:45;;;;;;;26.02;23.45;;;24.50;99.90;;;;;;5055966;28;20162;-27
2022/07/21 09:11:17;;;;;;;;;;;24.30;99.90;;;;;;5073705;28;20111;-27
2022/07/21 09:13:44;;;;;;;27.30;24.40;;;24.10;99.90;;;;;;5076980;28;19945;-30
2022/07/21 09:16:11;;;;;;;26.35;23.75;;;23.90;99.90;;;;;;5092122;28;20063;-30
2022/07/21 09:18:48;;;;;;;28.70;25.80;;;23.80;99.90;;;;;;5068076;28;20033;-30
2022/07/21 09:21:16;;;;;;;27.30;24.50;;;23.80;99.90;;;;;;5068739;28;20028;-29
2022/07/21 09:23:42;;;;;;;29.17;24.52;;;23.70;99.90;;;;;;5092168;28;20112;-29
2022/07/21 09:26:07;;;;;;;29.48;25.30;;;23.60;99.90;;;;;;5090277;28;20067;-29
2022/07/21 09:28:33;;;;;;;28.17;24.88;;;23.70;99.90;;;;;;5088291;28;20032;-29
2022/07/21 09:31:08;;;;;;;27.27;24.58;;;23.90;99.90;;;;;;5074040;28;20114;-29
2022/07/21 09:33:37;;;;;;;24.67;22.08;;;24.40;99.90;;;;;;5079595;28;20044;-29
2022/07/21 09:36:09;;;;;;;24.67;22.27;;;25.00;99.90;;;;;;5072311;28;20493;-29
2022/07/21 09:38:51;;;;;;;24.80;22.35;;;25.10;99.90;;;;;;5083377;28;20040;-30
2022/07/21 09:41:19;;;;;;;25.65;23.02;;;25.00;99.90;;;;;;5074243;28;20489;-30
2022/07/21 09:43:47;;;;;;;24.50;22.00;;;24.60;99.90;;;;;;5081151;28;20115;-30
2022/07/21 09:46:28;;;;;;;26.60;23.90;;;24.40;99.90;;;;;;5074074;28;20040;-30
2022/07/21 09:48:56;;;;;;;28.02;25.08;;;24.10;99.90;;;;;;5068901;28;20482;-30
2022/07/21 09:51:31;;;;;;;25.85;23.23;;;23.80;99.90;;;;;;5074156;28;20083;-30
2022/07/21 09:54:14;;;;;;;26.00;23.27;;;23.60;99.90;;;;;;5070488;28;20047;-30
2022/07/21 09:56:43;;;;;;;25.40;22.83;;;23.50;99.90;;;;;;5074996;28;20036;-30
2022/07/21 09:59:10;;;;;;;27.17;24.55;;;23.40;99.90;;;;;;5076997;28;20115;-30
2022/07/21 10:01:37;;;;;;;28.92;25.83;;;23.30;99.90;;;;;;5072397;28;20117;-29
2022/07/21 10:04:04;;;;;;;29.48;26.10;;;23.20;99.90;;;;;;5070217;28;20042;-29
2022/07/21 10:06:33;;;;;;;28.98;25.85;;;23.10;99.90;;;;;;5076350;28;20040;-29
2022/07/21 10:09:01;;;;;;;30.67;26.67;;;23.00;99.90;;;;;;5088791;28;20075;-29
2022/07/21 10:11:27;;;;;;;32.50;29.13;;;22.90;99.90;;;;;;5094893;28;20036;-29
2022/07/21 10:13:54;;;;;;;32.40;29.02;;;22.90;99.90;;;;;;5074681;28;20032;-29
2022/07/21 10:16:20;;;;;;;34.58;30.50;;;22.90;99.90;;;;;;5074008;28;20040;-29
2022/07/21 10:19:05;;;;;;;31.67;28.27;;;22.80;99.90;;;;;;5058696;28;20468;-30
2022/07/21 10:22:20;;;;;;;31.80;27.90;;;22.90;99.90;;;;;;5087577;28;20025;-30
2022/07/21 10:24:46;;;;;;;31.05;27.75;;;22.90;99.90;;;;;;5047380;28;20047;-30
2022/07/21 10:27:13;;;;;;;33.35;29.73;;;23.00;99.90;;;;;;5063463;28;20045;-30
2022/07/21 10:30:00;;;;;;;33.10;29.48;;;23.00;99.90;;;;;;5073053;28;20036;-30
2022/07/21 10:32:29;;;;;;;34.28;30.35;;;23.10;99.90;;;;;;5093238;28;20066;-30
2022/07/21 10:34:56;;;;;;;33.50;29.40;;;23.20;99.90;;;;;;5100037;28;20055;-30
2022/07/21 10:37:41;;;;;;;34.20;30.20;;;23.20;99.90;;;;;;5068290;28;20076;-30
2022/07/21 10:40:28;;;;;;;29.63;26.52;;;23.20;99.90;;;;;;5087363;28;20067;-30
2022/07/21 10:43:00;;;;;;;30.77;27.67;;;23.20;99.90;;;;;;5105061;28;20043;-30
2022/07/21 10:45:34;;;;;;;30.90;27.70;;;23.30;99.90;;;;;;5074025;28;20036;-30
2022/07/21 10:48:02;;;;;;;32.00;28.73;;;23.50;99.90;;;;;;5065316;28;20125;-30
2022/07/21 10:50:40;;;;;;;31.65;28.42;;;23.60;99.90;;;;;;5071992;28;20501;-30
2022/07/21 10:53:14;;;;;;;31.35;27.98;;;23.70;99.90;;;;;;5072372;28;20431;-30
2022/07/21 10:55:51;;;;;;;30.05;26.83;;;24.00;99.90;;;;;;5070459;28;20039;-30
2022/07/21 10:58:31;;;;;;;27.80;24.80;;;24.20;99.90;;;;;;5063659;28;20044;-30
2022/07/21 11:00:56;;;;;;;28.88;25.92;;;24.40;99.90;;;;;;5067923;28;20046;-30
2022/07/21 11:03:25;;;;;;;27.05;24.45;;;24.70;99.90;;;;;;5064615;28;20036;-30
2022/07/21 11:06:06;;;;;;;27.75;24.80;;;25.10;99.90;;;;;;5068498;28;20043;-30
2022/07/21 11:08:36;;;;;;;28.08;25.38;;;25.40;99.90;;;;;;5104345;28;20043;-29
2022/07/21 11:11:22;;;;;;;27.83;24.95;;;25.50;99.90;;;;;;5073074;28;20180;-30
2022/07/21 11:14:13;;;;;;;26.60;24.00;;;25.80;99.90;;;;;;5055833;28;20391;-30
2022/07/21 11:16:46;;;;;;;25.08;22.63;;;26.50;99.90;;;;;;5090112;28;20047;-30
2022/07/21 11:19:27;;;;;;;;;;;27.00;99.90;;;;;;5074136;28;20032;-30
2022/07/21 11:21:54;;;;;;;26.65;24.15;;;27.40;99.90;;;;;;5072698;28;19926;-30
2022/07/21 11:24:21;;;;;;;30.02;26.98;;;27.40;99.90;;;;;;5075130;28;20036;-30
2022/07/21 11:27:08;;;;;;;27.80;25.08;;;27.20;99.90;;;;;;5075487;28;20089;-30
2022/07/21 11:29:35;;;;;;;27.67;24.88;;;27.00;99.90;;;;;;5071219;28;20433;-30
2022/07/21 11:32:02;;;;;;;26.05;23.30;;;26.60;99.90;;;;;;5090661;28;20051;-29
2022/07/21 11:34:38;;;;;;;25.45;23.05;;;26.00;99.90;;;;;;5074435;28;20101;-29
2022/07/21 11:37:04;;;;;;;27.02;24.50;;;25.40;99.90;;;;;;5075169;28;20066;-29
2022/07/21 11:39:31;;;;;;;26.75;24.23;;;24.80;99.90;;;;;;5071068;28;20032;-29
2022/07/21 11:42:06;;;;;;;27.45;24.88;;;24.30;99.90;;;;;;5055167;28;20043;-29
2022/07/21 11:44:32;;;;;;;28.77;25.92;;;23.80;99.90;;;;;;5059995;28;20084;-29
2022/07/21 11:47:00;;;;;;;30.23;27.33;;;23.50;99.90;;;;;;5070864;28;20067;-29
2022/07/21 11:49:27;;;;;;;30.35;26.60;;;23.20;99.90;;;;;;5087796;28;20468;-29
2022/07/21 11:52:02;;;;;;;30.60;27.58;;;23.10;99.90;;;;;;5102926;28;20047;-29
2022/07/21 11:54:37;;;;;;;29.88;26.65;;;23.10;99.90;;;;;;5055324;28;20044;-29
2022/07/21 11:57:08;;;;;;;30.23;27.05;;;23.10;99.90;;;;;;5082134;28;20036;-29
2022/07/21 11:59:36;;;;;;;29.50;26.42;;;23.00;99.90;;;;;;5054440;28;20039;-29
2022/07/21 12:02:05;;;;;;;30.55;27.33;;;23.00;99.90;;;;;;5079907;28;20036;-29
2022/07/21 12:04:41;;;;;;;28.50;25.50;;;23.00;99.90;;;;;;5066231;28;20036;-30
2022/07/21 12:07:17;;;;;;;27.25;24.45;;;22.90;99.90;;;;;;5061743;28;20054;-30
2022/07/21 12:09:52;;;;;;;21.15;18.95;;;23.20;99.90;;;;;;5063179;28;20079;-30
2022/07/21 12:12:49;;;;;;;20.08;18.17;;;23.40;99.90;;;;;;5073184;28;20048;-30
2022/07/21 12:15:23;;;;;;;19.95;17.88;;;23.60;99.90;;;;;;5055696;28;20083;-30
2022/07/21 12:17:50;;;;;;;19.27;17.20;;;23.90;99.90;;;;;;5074326;28;20047;-31
2022/07/21 12:20:48;;;;;;;18.52;16.83;;;24.00;99.90;;;;;;5072002;28;20036;-30
2022/07/21 12:23:27;;;;;;;20.23;18.25;;;24.00;99.90;;;;;;5074600;28;20035;-30
2022/07/21 12:25:54;;;;;;;16.52;14.48;;;24.00;99.90;;;;;;5071624;28;20036;-30
2022/07/21 12:28:20;;;;;;;14.52;13.00;;;23.90;99.90;;;;;;5093061;28;20094;-30
2022/07/21 12:30:50;;;;;;;12.05;10.82;;;23.80;99.90;;;;;;5073404;28;20415;-30
2022/07/21 12:33:34;;;;;;;11.25;10.25;;;23.70;99.90;;;;;;5074018;28;20071;-30
2022/07/21 12:36:06;;;;;;;10.05;8.93;;;23.60;99.90;;;;;;5086187;28;20045;-30
2022/07/21 12:38:46;;;;;;;10.02;9.13;;;23.60;99.90;;;;;;5066185;28;20488;-30